sensor_id;sensor_type;location;lat;lon;timestamp;P1;durP1;ratioP1;P2;durP2;ratioP2
2257;SDS011;1136;51.574;7.706;2023-05-07T00:00:34;10.30;;;9.40;;
2257;SDS011;1136;51.574;7.706;2023-05-07T00:03:01;10.50;;;9.60;;
2257;SDS011;1136;51.574;7.706;2023-05-07T00:05:28;10.27;;;9.47;;
2257;SDS011;1136;51.574;7.706;2023-05-07T00:07:55;10.47;;;9.57;;
2257;SDS011;1136;51.574;7.706;2023-05-07T00:10:24;9.60;;;8.90;;
2257;SDS011;1136;51.574;7.706;2023-05-07T00:12:51;10.87;;;10.07;;
2257;SDS011;1136;51.574;7.706;2023-05-07T00:15:18;9.90;;;8.90;;
2257;SDS011;1136;51.574;7.706;2023-05-07T00:17:44;10.37;;;9.67;;
2257;SDS011;1136;51.574;7.706;2023-05-07T00:20:11;9.27;;;8.57;;
2257;SDS011;1136;51.574;7.706;2023-05-07T00:22:38;9.00;;;8.30;;
2257;SDS011;1136;51.574;7.706;2023-05-07T00:25:05;10.00;;;9.20;;
2257;SDS011;1136;51.574;7.706;2023-05-07T00:27:32;9.63;;;8.80;;
2257;SDS011;1136;51.574;7.706;2023-05-07T00:29:58;10.17;;;9.27;;
2257;SDS011;1136;51.574;7.706;2023-05-07T00:32:25;9.70;;;9.00;;
2257;SDS011;1136;51.574;7.706;2023-05-07T00:34:51;10.17;;;9.17;;
2257;SDS011;1136;51.574;7.706;2023-05-07T00:37:18;11.10;;;10.00;;
2257;SDS011;1136;51.574;7.706;2023-05-07T00:39:45;9.80;;;9.07;;
2257;SDS011;1136;51.574;7.706;2023-05-07T00:42:11;10.97;;;10.17;;
2257;SDS011;1136;51.574;7.706;2023-05-07T00:44:38;11.20;;;9.97;;
2257;SDS011;1136;51.574;7.706;2023-05-07T00:47:04;10.37;;;9.57;;
2257;SDS011;1136;51.574;7.706;2023-05-07T00:49:37;10.30;;;9.50;;
2257;SDS011;1136;51.574;7.706;2023-05-07T00:52:05;13.63;;;9.67;;
2257;SDS011;1136;51.574;7.706;2023-05-07T00:54:33;11.60;;;10.60;;
2257;SDS011;1136;51.574;7.706;2023-05-07T00:57:01;10.83;;;9.83;;
2257;SDS011;1136;51.574;7.706;2023-05-07T00:59:29;10.10;;;9.20;;
2257;SDS011;1136;51.574;7.706;2023-05-07T01:01:57;9.63;;;8.83;;
2257;SDS011;1136;51.574;7.706;2023-05-07T01:04:24;10.00;;;9.07;;
2257;SDS011;1136;51.574;7.706;2023-05-07T01:06:55;9.60;;;8.90;;
2257;SDS011;1136;51.574;7.706;2023-05-07T01:09:23;10.13;;;9.30;;
2257;SDS011;1136;51.574;7.706;2023-05-07T01:11:51;11.37;;;9.90;;
2257;SDS011;1136;51.574;7.706;2023-05-07T01:14:18;10.73;;;9.70;;
2257;SDS011;1136;51.574;7.706;2023-05-07T01:16:47;10.47;;;9.57;;
2257;SDS011;1136;51.574;7.706;2023-05-07T01:19:14;10.97;;;10.07;;
2257;SDS011;1136;51.574;7.706;2023-05-07T01:21:48;10.63;;;9.73;;
2257;SDS011;1136;51.574;7.706;2023-05-07T01:24:15;11.60;;;10.70;;
2257;SDS011;1136;51.574;7.706;2023-05-07T01:26:42;13.20;;;10.80;;
2257;SDS011;1136;51.574;7.706;2023-05-07T01:29:10;11.37;;;10.47;;
2257;SDS011;1136;51.574;7.706;2023-05-07T01:31:37;11.70;;;10.70;;
2257;SDS011;1136;51.574;7.706;2023-05-07T01:34:04;12.37;;;11.47;;
2257;SDS011;1136;51.574;7.706;2023-05-07T01:36:31;12.77;;;11.50;;
2257;SDS011;1136;51.574;7.706;2023-05-07T01:38:58;12.00;;;10.60;;
2257;SDS011;1136;51.574;7.706;2023-05-07T01:41:25;11.43;;;10.47;;
2257;SDS011;1136;51.574;7.706;2023-05-07T01:43:52;12.07;;;10.97;;
2257;SDS011;1136;51.574;7.706;2023-05-07T01:46:19;12.50;;;11.47;;
2257;SDS011;1136;51.574;7.706;2023-05-07T01:48:46;12.70;;;11.43;;
2257;SDS011;1136;51.574;7.706;2023-05-07T01:51:13;12.50;;;11.57;;
2257;SDS011;1136;51.574;7.706;2023-05-07T01:53:40;13.80;;;12.73;;
2257;SDS011;1136;51.574;7.706;2023-05-07T01:56:07;13.80;;;12.40;;
2257;SDS011;1136;51.574;7.706;2023-05-07T01:58:33;13.27;;;12.17;;
2257;SDS011;1136;51.574;7.706;2023-05-07T02:01:00;13.83;;;12.37;;
2257;SDS011;1136;51.574;7.706;2023-05-07T02:03:27;13.30;;;12.00;;
2257;SDS011;1136;51.574;7.706;2023-05-07T02:05:53;12.13;;;11.03;;
2257;SDS011;1136;51.574;7.706;2023-05-07T02:08:20;12.80;;;11.70;;
2257;SDS011;1136;51.574;7.706;2023-05-07T02:10:47;11.60;;;10.70;;
2257;SDS011;1136;51.574;7.706;2023-05-07T02:13:13;13.90;;;12.80;;
2257;SDS011;1136;51.574;7.706;2023-05-07T02:15:40;15.27;;;14.07;;
2257;SDS011;1136;51.574;7.706;2023-05-07T02:18:08;13.93;;;12.83;;
2257;SDS011;1136;51.574;7.706;2023-05-07T02:20:35;13.77;;;12.50;;
2257;SDS011;1136;51.574;7.706;2023-05-07T02:23:01;13.37;;;12.10;;
2257;SDS011;1136;51.574;7.706;2023-05-07T02:25:28;15.23;;;11.90;;
2257;SDS011;1136;51.574;7.706;2023-05-07T02:27:56;13.73;;;12.63;;
2257;SDS011;1136;51.574;7.706;2023-05-07T02:30:23;13.53;;;12.37;;
2257;SDS011;1136;51.574;7.706;2023-05-07T02:32:50;14.07;;;12.87;;
2257;SDS011;1136;51.574;7.706;2023-05-07T02:35:16;13.93;;;12.90;;
2257;SDS011;1136;51.574;7.706;2023-05-07T02:37:43;14.90;;;13.53;;
2257;SDS011;1136;51.574;7.706;2023-05-07T02:40:10;14.00;;;12.80;;
2257;SDS011;1136;51.574;7.706;2023-05-07T02:42:38;12.50;;;11.40;;
2257;SDS011;1136;51.574;7.706;2023-05-07T02:45:04;13.53;;;12.40;;
2257;SDS011;1136;51.574;7.706;2023-05-07T02:47:31;13.50;;;12.30;;
2257;SDS011;1136;51.574;7.706;2023-05-07T02:49:58;13.47;;;12.27;;
2257;SDS011;1136;51.574;7.706;2023-05-07T02:52:25;13.93;;;12.73;;
2257;SDS011;1136;51.574;7.706;2023-05-07T02:54:51;14.67;;;13.33;;
2257;SDS011;1136;51.574;7.706;2023-05-07T02:57:18;14.40;;;12.77;;
2257;SDS011;1136;51.574;7.706;2023-05-07T02:59:45;13.53;;;12.30;;
2257;SDS011;1136;51.574;7.706;2023-05-07T03:02:12;13.73;;;12.63;;
2257;SDS011;1136;51.574;7.706;2023-05-07T03:04:39;12.70;;;11.70;;
2257;SDS011;1136;51.574;7.706;2023-05-07T03:07:06;13.40;;;12.10;;
2257;SDS011;1136;51.574;7.706;2023-05-07T03:09:32;12.83;;;11.63;;
2257;SDS011;1136;51.574;7.706;2023-05-07T03:11:59;12.40;;;11.10;;
2257;SDS011;1136;51.574;7.706;2023-05-07T03:14:25;13.60;;;12.37;;
2257;SDS011;1136;51.574;7.706;2023-05-07T03:16:52;13.20;;;11.80;;
2257;SDS011;1136;51.574;7.706;2023-05-07T03:19:19;12.53;;;11.30;;
2257;SDS011;1136;51.574;7.706;2023-05-07T03:21:46;11.57;;;10.67;;
2257;SDS011;1136;51.574;7.706;2023-05-07T03:24:13;11.93;;;10.90;;
2257;SDS011;1136;51.574;7.706;2023-05-07T03:26:40;11.90;;;10.90;;
2257;SDS011;1136;51.574;7.706;2023-05-07T03:29:07;12.77;;;11.70;;
2257;SDS011;1136;51.574;7.706;2023-05-07T03:31:34;11.43;;;10.43;;
2257;SDS011;1136;51.574;7.706;2023-05-07T03:34:01;11.57;;;10.67;;
2257;SDS011;1136;51.574;7.706;2023-05-07T03:36:28;11.10;;;10.10;;
2257;SDS011;1136;51.574;7.706;2023-05-07T03:38:55;12.73;;;11.73;;
2257;SDS011;1136;51.574;7.706;2023-05-07T03:41:22;11.60;;;10.60;;
2257;SDS011;1136;51.574;7.706;2023-05-07T03:43:49;11.40;;;10.23;;
2257;SDS011;1136;51.574;7.706;2023-05-07T03:46:16;10.43;;;9.40;;
2257;SDS011;1136;51.574;7.706;2023-05-07T03:48:43;12.10;;;11.20;;
2257;SDS011;1136;51.574;7.706;2023-05-07T03:51:10;10.73;;;10.00;;
2257;SDS011;1136;51.574;7.706;2023-05-07T03:53:37;10.73;;;9.83;;
2257;SDS011;1136;51.574;7.706;2023-05-07T03:56:04;12.63;;;10.37;;
2257;SDS011;1136;51.574;7.706;2023-05-07T03:58:31;11.53;;;10.50;;
2257;SDS011;1136;51.574;7.706;2023-05-07T04:00:58;12.93;;;10.17;;
2257;SDS011;1136;51.574;7.706;2023-05-07T04:03:24;11.83;;;10.90;;
2257;SDS011;1136;51.574;7.706;2023-05-07T04:05:51;10.67;;;9.67;;
2257;SDS011;1136;51.574;7.706;2023-05-07T04:08:18;10.27;;;9.30;;
2257;SDS011;1136;51.574;7.706;2023-05-07T04:10:44;12.43;;;10.33;;
2257;SDS011;1136;51.574;7.706;2023-05-07T04:13:11;11.20;;;10.30;;
2257;SDS011;1136;51.574;7.706;2023-05-07T04:15:38;11.10;;;10.10;;
2257;SDS011;1136;51.574;7.706;2023-05-07T04:18:04;11.57;;;10.50;;
2257;SDS011;1136;51.574;7.706;2023-05-07T04:20:33;11.17;;;10.27;;
2257;SDS011;1136;51.574;7.706;2023-05-07T04:23:02;12.63;;;10.40;;
2257;SDS011;1136;51.574;7.706;2023-05-07T04:25:29;11.00;;;9.43;;
2257;SDS011;1136;51.574;7.706;2023-05-07T04:27:56;10.70;;;9.80;;
2257;SDS011;1136;51.574;7.706;2023-05-07T04:30:23;11.90;;;10.93;;
2257;SDS011;1136;51.574;7.706;2023-05-07T04:32:50;11.00;;;9.90;;
2257;SDS011;1136;51.574;7.706;2023-05-07T04:35:16;9.97;;;9.27;;
2257;SDS011;1136;51.574;7.706;2023-05-07T04:37:43;11.67;;;9.70;;
2257;SDS011;1136;51.574;7.706;2023-05-07T04:40:10;10.60;;;9.70;;
2257;SDS011;1136;51.574;7.706;2023-05-07T04:42:37;10.90;;;10.00;;
2257;SDS011;1136;51.574;7.706;2023-05-07T04:45:04;10.67;;;9.57;;
2257;SDS011;1136;51.574;7.706;2023-05-07T04:47:31;10.87;;;9.77;;
2257;SDS011;1136;51.574;7.706;2023-05-07T04:49:58;12.10;;;10.43;;
2257;SDS011;1136;51.574;7.706;2023-05-07T04:52:25;11.60;;;10.03;;
2257;SDS011;1136;51.574;7.706;2023-05-07T04:54:52;11.23;;;10.17;;
2257;SDS011;1136;51.574;7.706;2023-05-07T04:57:19;11.47;;;10.03;;
2257;SDS011;1136;51.574;7.706;2023-05-07T04:59:46;11.50;;;10.37;;
2257;SDS011;1136;51.574;7.706;2023-05-07T05:02:12;10.43;;;9.53;;
2257;SDS011;1136;51.574;7.706;2023-05-07T05:04:39;11.90;;;10.70;;
2257;SDS011;1136;51.574;7.706;2023-05-07T05:07:05;12.20;;;10.90;;
2257;SDS011;1136;51.574;7.706;2023-05-07T05:09:32;13.00;;;11.80;;
2257;SDS011;1136;51.574;7.706;2023-05-07T05:11:59;11.47;;;10.40;;
2257;SDS011;1136;51.574;7.706;2023-05-07T05:14:25;14.23;;;12.10;;
2257;SDS011;1136;51.574;7.706;2023-05-07T05:16:52;12.63;;;10.43;;
2257;SDS011;1136;51.574;7.706;2023-05-07T05:19:19;12.10;;;10.90;;
2257;SDS011;1136;51.574;7.706;2023-05-07T05:21:45;11.40;;;9.93;;
2257;SDS011;1136;51.574;7.706;2023-05-07T05:24:12;12.37;;;10.80;;
2257;SDS011;1136;51.574;7.706;2023-05-07T05:26:38;11.20;;;10.10;;
2257;SDS011;1136;51.574;7.706;2023-05-07T05:29:05;12.37;;;11.27;;
2257;SDS011;1136;51.574;7.706;2023-05-07T05:31:32;11.90;;;10.80;;
2257;SDS011;1136;51.574;7.706;2023-05-07T05:33:59;15.67;;;14.00;;
2257;SDS011;1136;51.574;7.706;2023-05-07T05:36:26;14.07;;;12.67;;
2257;SDS011;1136;51.574;7.706;2023-05-07T05:38:53;11.40;;;10.33;;
2257;SDS011;1136;51.574;7.706;2023-05-07T05:41:19;12.43;;;11.40;;
2257;SDS011;1136;51.574;7.706;2023-05-07T05:43:47;12.30;;;11.27;;
2257;SDS011;1136;51.574;7.706;2023-05-07T05:46:13;12.60;;;11.50;;
2257;SDS011;1136;51.574;7.706;2023-05-07T05:48:41;13.80;;;12.50;;
2257;SDS011;1136;51.574;7.706;2023-05-07T05:51:07;12.93;;;11.80;;
2257;SDS011;1136;51.574;7.706;2023-05-07T05:53:34;13.23;;;11.93;;
2257;SDS011;1136;51.574;7.706;2023-05-07T05:56:01;13.83;;;12.63;;
2257;SDS011;1136;51.574;7.706;2023-05-07T05:58:28;13.20;;;12.00;;
2257;SDS011;1136;51.574;7.706;2023-05-07T06:00:54;15.50;;;13.90;;
2257;SDS011;1136;51.574;7.706;2023-05-07T06:03:21;26.27;;;13.97;;
2257;SDS011;1136;51.574;7.706;2023-05-07T06:05:47;15.20;;;14.00;;
2257;SDS011;1136;51.574;7.706;2023-05-07T06:08:14;18.87;;;14.60;;
2257;SDS011;1136;51.574;7.706;2023-05-07T06:10:41;15.93;;;14.27;;
2257;SDS011;1136;51.574;7.706;2023-05-07T06:13:07;15.70;;;14.47;;
2257;SDS011;1136;51.574;7.706;2023-05-07T06:15:34;16.50;;;14.80;;
2257;SDS011;1136;51.574;7.706;2023-05-07T06:18:00;16.50;;;14.80;;
2257;SDS011;1136;51.574;7.706;2023-05-07T06:20:27;17.50;;;15.40;;
2257;SDS011;1136;51.574;7.706;2023-05-07T06:22:53;18.07;;;16.57;;
2257;SDS011;1136;51.574;7.706;2023-05-07T06:25:20;21.47;;;19.40;;
2257;SDS011;1136;51.574;7.706;2023-05-07T06:27:46;17.13;;;15.53;;
2257;SDS011;1136;51.574;7.706;2023-05-07T06:30:13;17.60;;;16.10;;
2257;SDS011;1136;51.574;7.706;2023-05-07T06:32:40;18.60;;;16.97;;
2257;SDS011;1136;51.574;7.706;2023-05-07T06:35:07;18.73;;;16.97;;
2257;SDS011;1136;51.574;7.706;2023-05-07T06:37:34;19.20;;;17.57;;
2257;SDS011;1136;51.574;7.706;2023-05-07T06:40:01;19.37;;;17.60;;
2257;SDS011;1136;51.574;7.706;2023-05-07T06:42:27;19.70;;;17.60;;
2257;SDS011;1136;51.574;7.706;2023-05-07T06:44:54;18.67;;;16.77;;
2257;SDS011;1136;51.574;7.706;2023-05-07T06:47:21;18.30;;;16.33;;
2257;SDS011;1136;51.574;7.706;2023-05-07T06:49:48;20.93;;;18.83;;
2257;SDS011;1136;51.574;7.706;2023-05-07T06:52:14;18.83;;;17.23;;
2257;SDS011;1136;51.574;7.706;2023-05-07T06:54:41;19.40;;;17.60;;
2257;SDS011;1136;51.574;7.706;2023-05-07T06:57:07;19.13;;;17.40;;
2257;SDS011;1136;51.574;7.706;2023-05-07T06:59:34;19.73;;;17.90;;
2257;SDS011;1136;51.574;7.706;2023-05-07T07:02:01;19.77;;;17.77;;
2257;SDS011;1136;51.574;7.706;2023-05-07T07:04:27;18.23;;;16.73;;
2257;SDS011;1136;51.574;7.706;2023-05-07T07:06:54;19.20;;;17.40;;
2257;SDS011;1136;51.574;7.706;2023-05-07T07:09:22;19.60;;;17.70;;
2257;SDS011;1136;51.574;7.706;2023-05-07T07:11:49;20.23;;;18.20;;
2257;SDS011;1136;51.574;7.706;2023-05-07T07:14:15;21.10;;;19.10;;
2257;SDS011;1136;51.574;7.706;2023-05-07T07:16:42;20.50;;;18.43;;
2257;SDS011;1136;51.574;7.706;2023-05-07T07:19:09;20.17;;;18.13;;
2257;SDS011;1136;51.574;7.706;2023-05-07T07:21:35;21.53;;;19.53;;
2257;SDS011;1136;51.574;7.706;2023-05-07T07:24:02;22.33;;;20.07;;
2257;SDS011;1136;51.574;7.706;2023-05-07T07:26:29;22.70;;;20.17;;
2257;SDS011;1136;51.574;7.706;2023-05-07T07:28:56;20.50;;;18.70;;
2257;SDS011;1136;51.574;7.706;2023-05-07T07:31:22;22.03;;;20.13;;
2257;SDS011;1136;51.574;7.706;2023-05-07T07:33:49;23.03;;;20.93;;
2257;SDS011;1136;51.574;7.706;2023-05-07T07:36:18;22.10;;;19.77;;
2257;SDS011;1136;51.574;7.706;2023-05-07T07:38:45;22.20;;;20.10;;
2257;SDS011;1136;51.574;7.706;2023-05-07T07:41:11;21.83;;;19.77;;
2257;SDS011;1136;51.574;7.706;2023-05-07T07:43:38;23.60;;;21.10;;
2257;SDS011;1136;51.574;7.706;2023-05-07T07:46:04;21.77;;;19.83;;
2257;SDS011;1136;51.574;7.706;2023-05-07T07:48:31;23.00;;;20.80;;
2257;SDS011;1136;51.574;7.706;2023-05-07T07:50:58;22.03;;;19.93;;
2257;SDS011;1136;51.574;7.706;2023-05-07T07:53:24;21.77;;;19.70;;
2257;SDS011;1136;51.574;7.706;2023-05-07T07:55:51;20.50;;;18.60;;
2257;SDS011;1136;51.574;7.706;2023-05-07T07:58:24;22.00;;;20.10;;
2257;SDS011;1136;51.574;7.706;2023-05-07T08:00:51;21.43;;;19.17;;
2257;SDS011;1136;51.574;7.706;2023-05-07T08:03:18;21.10;;;18.90;;
2257;SDS011;1136;51.574;7.706;2023-05-07T08:05:46;19.13;;;17.23;;
2257;SDS011;1136;51.574;7.706;2023-05-07T08:08:12;19.77;;;17.77;;
2257;SDS011;1136;51.574;7.706;2023-05-07T08:10:39;20.50;;;18.50;;
2257;SDS011;1136;51.574;7.706;2023-05-07T08:13:06;19.20;;;17.57;;
2257;SDS011;1136;51.574;7.706;2023-05-07T08:15:33;18.70;;;17.00;;
2257;SDS011;1136;51.574;7.706;2023-05-07T08:18:02;19.03;;;17.23;;
2257;SDS011;1136;51.574;7.706;2023-05-07T08:20:29;19.87;;;17.80;;
2257;SDS011;1136;51.574;7.706;2023-05-07T08:22:56;19.70;;;17.63;;
2257;SDS011;1136;51.574;7.706;2023-05-07T08:25:22;19.27;;;17.57;;
2257;SDS011;1136;51.574;7.706;2023-05-07T08:27:49;18.63;;;16.93;;
2257;SDS011;1136;51.574;7.706;2023-05-07T08:30:16;20.47;;;18.60;;
2257;SDS011;1136;51.574;7.706;2023-05-07T08:32:42;19.50;;;16.60;;
2257;SDS011;1136;51.574;7.706;2023-05-07T08:35:09;16.53;;;15.20;;
2257;SDS011;1136;51.574;7.706;2023-05-07T08:37:36;17.17;;;15.47;;
2257;SDS011;1136;51.574;7.706;2023-05-07T08:40:02;17.60;;;15.73;;
2257;SDS011;1136;51.574;7.706;2023-05-07T08:42:32;15.67;;;14.37;;
2257;SDS011;1136;51.574;7.706;2023-05-07T08:45:02;15.50;;;14.00;;
2257;SDS011;1136;51.574;7.706;2023-05-07T08:47:34;16.07;;;14.57;;
2257;SDS011;1136;51.574;7.706;2023-05-07T08:50:05;15.70;;;14.20;;
2257;SDS011;1136;51.574;7.706;2023-05-07T08:52:32;16.87;;;15.30;;
2257;SDS011;1136;51.574;7.706;2023-05-07T08:54:59;16.50;;;14.70;;
2257;SDS011;1136;51.574;7.706;2023-05-07T08:57:26;18.77;;;17.03;;
2257;SDS011;1136;51.574;7.706;2023-05-07T08:59:52;18.40;;;16.90;;
2257;SDS011;1136;51.574;7.706;2023-05-07T09:02:19;16.70;;;15.30;;
2257;SDS011;1136;51.574;7.706;2023-05-07T09:04:46;16.10;;;14.80;;
2257;SDS011;1136;51.574;7.706;2023-05-07T09:07:13;18.47;;;16.67;;
2257;SDS011;1136;51.574;7.706;2023-05-07T09:09:39;17.70;;;16.30;;
2257;SDS011;1136;51.574;7.706;2023-05-07T09:12:06;18.00;;;16.40;;
2257;SDS011;1136;51.574;7.706;2023-05-07T09:14:32;17.37;;;15.87;;
2257;SDS011;1136;51.574;7.706;2023-05-07T09:16:59;16.97;;;15.47;;
2257;SDS011;1136;51.574;7.706;2023-05-07T09:19:26;16.13;;;14.73;;
2257;SDS011;1136;51.574;7.706;2023-05-07T09:22:03;17.03;;;15.33;;
2257;SDS011;1136;51.574;7.706;2023-05-07T09:24:30;14.60;;;13.20;;
2257;SDS011;1136;51.574;7.706;2023-05-07T09:27:01;13.93;;;12.93;;
2257;SDS011;1136;51.574;7.706;2023-05-07T09:29:28;14.00;;;13.00;;
2257;SDS011;1136;51.574;7.706;2023-05-07T09:31:56;14.40;;;13.30;;
2257;SDS011;1136;51.574;7.706;2023-05-07T09:34:23;13.73;;;12.60;;
2257;SDS011;1136;51.574;7.706;2023-05-07T09:36:50;14.30;;;13.10;;
2257;SDS011;1136;51.574;7.706;2023-05-07T09:39:16;14.23;;;13.20;;
2257;SDS011;1136;51.574;7.706;2023-05-07T09:41:43;15.57;;;14.27;;
2257;SDS011;1136;51.574;7.706;2023-05-07T09:44:12;15.93;;;14.53;;
2257;SDS011;1136;51.574;7.706;2023-05-07T09:46:39;15.00;;;13.77;;
2257;SDS011;1136;51.574;7.706;2023-05-07T09:49:11;15.87;;;14.37;;
2257;SDS011;1136;51.574;7.706;2023-05-07T09:51:45;13.83;;;12.63;;
2257;SDS011;1136;51.574;7.706;2023-05-07T09:54:15;14.30;;;13.03;;
2257;SDS011;1136;51.574;7.706;2023-05-07T09:56:43;16.13;;;14.83;;
2257;SDS011;1136;51.574;7.706;2023-05-07T09:59:15;15.30;;;13.77;;
2257;SDS011;1136;51.574;7.706;2023-05-07T10:01:43;15.63;;;14.33;;
2257;SDS011;1136;51.574;7.706;2023-05-07T10:04:10;14.10;;;13.10;;
2257;SDS011;1136;51.574;7.706;2023-05-07T10:06:37;14.17;;;13.10;;
2257;SDS011;1136;51.574;7.706;2023-05-07T10:09:05;15.07;;;13.90;;
2257;SDS011;1136;51.574;7.706;2023-05-07T10:11:32;16.37;;;14.87;;
2257;SDS011;1136;51.574;7.706;2023-05-07T10:14:00;15.90;;;14.70;;
2257;SDS011;1136;51.574;7.706;2023-05-07T10:16:33;15.60;;;14.37;;
2257;SDS011;1136;51.574;7.706;2023-05-07T10:19:06;15.03;;;13.80;;
2257;SDS011;1136;51.574;7.706;2023-05-07T10:21:36;16.23;;;15.00;;
2257;SDS011;1136;51.574;7.706;2023-05-07T10:24:05;14.13;;;12.93;;
2257;SDS011;1136;51.574;7.706;2023-05-07T10:26:36;14.47;;;13.37;;
2257;SDS011;1136;51.574;7.706;2023-05-07T10:29:05;15.73;;;14.53;;
2257;SDS011;1136;51.574;7.706;2023-05-07T10:34:11;14.60;;;13.50;;
2257;SDS011;1136;51.574;7.706;2023-05-07T10:36:40;16.23;;;15.03;;
2257;SDS011;1136;51.574;7.706;2023-05-07T10:39:07;15.77;;;14.40;;
2257;SDS011;1136;51.574;7.706;2023-05-07T10:41:34;16.20;;;14.93;;
2257;SDS011;1136;51.574;7.706;2023-05-07T10:44:01;15.33;;;14.13;;
2257;SDS011;1136;51.574;7.706;2023-05-07T10:46:28;16.10;;;14.97;;
2257;SDS011;1136;51.574;7.706;2023-05-07T10:51:29;15.60;;;14.40;;
2257;SDS011;1136;51.574;7.706;2023-05-07T10:56:41;16.67;;;15.40;;
2257;SDS011;1136;51.574;7.706;2023-05-07T10:59:33;17.53;;;16.17;;
2257;SDS011;1136;51.574;7.706;2023-05-07T11:02:02;17.97;;;16.67;;
2257;SDS011;1136;51.574;7.706;2023-05-07T11:04:30;15.57;;;14.37;;
2257;SDS011;1136;51.574;7.706;2023-05-07T11:17:58;12.20;;;11.30;;
2257;SDS011;1136;51.574;7.706;2023-05-07T11:28:29;11.80;;;10.90;;
2257;SDS011;1136;51.574;7.706;2023-05-07T11:30:57;13.20;;;12.20;;
2257;SDS011;1136;51.574;7.706;2023-05-07T11:33:23;12.67;;;11.57;;
2257;SDS011;1136;51.574;7.706;2023-05-07T11:35:53;11.50;;;10.30;;
2257;SDS011;1136;51.574;7.706;2023-05-07T11:38:19;13.10;;;12.00;;
2257;SDS011;1136;51.574;7.706;2023-05-07T11:40:50;10.33;;;9.43;;
2257;SDS011;1136;51.574;7.706;2023-05-07T11:43:17;10.80;;;9.90;;
2257;SDS011;1136;51.574;7.706;2023-05-07T11:45:47;10.90;;;10.00;;
2257;SDS011;1136;51.574;7.706;2023-05-07T11:48:15;11.30;;;10.40;;
2257;SDS011;1136;51.574;7.706;2023-05-07T11:50:52;11.13;;;10.13;;
2257;SDS011;1136;51.574;7.706;2023-05-07T11:53:19;11.73;;;10.73;;
2257;SDS011;1136;51.574;7.706;2023-05-07T11:55:46;10.60;;;9.80;;
2257;SDS011;1136;51.574;7.706;2023-05-07T11:58:15;10.07;;;9.30;;
2257;SDS011;1136;51.574;7.706;2023-05-07T12:00:50;11.30;;;10.47;;
2257;SDS011;1136;51.574;7.706;2023-05-07T12:03:17;10.37;;;9.53;;
2257;SDS011;1136;51.574;7.706;2023-05-07T12:05:44;11.10;;;10.20;;
2257;SDS011;1136;51.574;7.706;2023-05-07T12:08:18;12.67;;;11.50;;
2257;SDS011;1136;51.574;7.706;2023-05-07T12:10:46;12.17;;;11.23;;
2257;SDS011;1136;51.574;7.706;2023-05-07T12:13:17;11.47;;;10.37;;
2257;SDS011;1136;51.574;7.706;2023-05-07T12:16:06;10.67;;;9.87;;
2257;SDS011;1136;51.574;7.706;2023-05-07T12:18:36;10.40;;;9.50;;
2257;SDS011;1136;51.574;7.706;2023-05-07T12:21:04;11.50;;;10.10;;
2257;SDS011;1136;51.574;7.706;2023-05-07T12:23:30;9.37;;;8.57;;
2257;SDS011;1136;51.574;7.706;2023-05-07T12:25:57;9.00;;;8.30;;
2257;SDS011;1136;51.574;7.706;2023-05-07T12:28:25;8.97;;;8.27;;
2257;SDS011;1136;51.574;7.706;2023-05-07T12:30:52;8.40;;;7.70;;
2257;SDS011;1136;51.574;7.706;2023-05-07T12:33:19;9.73;;;8.83;;
2257;SDS011;1136;51.574;7.706;2023-05-07T12:35:50;9.43;;;8.73;;
2257;SDS011;1136;51.574;7.706;2023-05-07T12:38:19;10.20;;;9.40;;
2257;SDS011;1136;51.574;7.706;2023-05-07T12:40:47;10.70;;;9.80;;
2257;SDS011;1136;51.574;7.706;2023-05-07T12:45:48;10.33;;;9.33;;
2257;SDS011;1136;51.574;7.706;2023-05-07T12:48:17;7.53;;;6.80;;
2257;SDS011;1136;51.574;7.706;2023-05-07T12:50:43;9.57;;;8.70;;
2257;SDS011;1136;51.574;7.706;2023-05-07T12:53:11;10.60;;;9.60;;
2257;SDS011;1136;51.574;7.706;2023-05-07T12:55:42;8.73;;;7.93;;
2257;SDS011;1136;51.574;7.706;2023-05-07T12:58:14;10.83;;;9.93;;
2257;SDS011;1136;51.574;7.706;2023-05-07T13:00:47;10.00;;;9.30;;
2257;SDS011;1136;51.574;7.706;2023-05-07T13:03:21;10.83;;;9.83;;
2257;SDS011;1136;51.574;7.706;2023-05-07T13:05:54;8.70;;;8.10;;
2257;SDS011;1136;51.574;7.706;2023-05-07T13:08:25;7.80;;;7.23;;
2257;SDS011;1136;51.574;7.706;2023-05-07T13:10:53;8.90;;;8.00;;
2257;SDS011;1136;51.574;7.706;2023-05-07T13:13:20;9.07;;;8.37;;
2257;SDS011;1136;51.574;7.706;2023-05-07T13:15:47;9.20;;;8.40;;
2257;SDS011;1136;51.574;7.706;2023-05-07T13:18:14;9.17;;;8.43;;
2257;SDS011;1136;51.574;7.706;2023-05-07T13:20:41;8.57;;;7.97;;
2257;SDS011;1136;51.574;7.706;2023-05-07T13:23:08;9.93;;;8.30;;
2257;SDS011;1136;51.574;7.706;2023-05-07T13:25:34;8.67;;;7.97;;
2257;SDS011;1136;51.574;7.706;2023-05-07T13:28:03;8.57;;;7.77;;
2257;SDS011;1136;51.574;7.706;2023-05-07T13:30:36;7.80;;;7.00;;
2257;SDS011;1136;51.574;7.706;2023-05-07T13:33:03;8.30;;;7.60;;
2257;SDS011;1136;51.574;7.706;2023-05-07T13:35:30;8.17;;;7.57;;
2257;SDS011;1136;51.574;7.706;2023-05-07T13:37:57;8.10;;;7.30;;
2257;SDS011;1136;51.574;7.706;2023-05-07T13:40:24;7.80;;;7.10;;
2257;SDS011;1136;51.574;7.706;2023-05-07T13:42:51;8.90;;;7.50;;
2257;SDS011;1136;51.574;7.706;2023-05-07T13:45:18;6.70;;;6.10;;
2257;SDS011;1136;51.574;7.706;2023-05-07T13:47:45;6.63;;;6.03;;
2257;SDS011;1136;51.574;7.706;2023-05-07T13:50:13;6.80;;;6.30;;
2257;SDS011;1136;51.574;7.706;2023-05-07T13:52:43;6.90;;;6.40;;
2257;SDS011;1136;51.574;7.706;2023-05-07T13:55:17;8.00;;;7.50;;
2257;SDS011;1136;51.574;7.706;2023-05-07T13:57:44;8.60;;;7.90;;
2257;SDS011;1136;51.574;7.706;2023-05-07T14:00:11;7.23;;;6.60;;
2257;SDS011;1136;51.574;7.706;2023-05-07T14:02:39;7.87;;;7.17;;
2257;SDS011;1136;51.574;7.706;2023-05-07T14:05:06;7.87;;;7.20;;
2257;SDS011;1136;51.574;7.706;2023-05-07T14:07:33;8.50;;;7.73;;
2257;SDS011;1136;51.574;7.706;2023-05-07T14:10:00;10.70;;;7.70;;
2257;SDS011;1136;51.574;7.706;2023-05-07T14:12:27;8.73;;;7.83;;
2257;SDS011;1136;51.574;7.706;2023-05-07T14:14:53;8.30;;;7.60;;
2257;SDS011;1136;51.574;7.706;2023-05-07T14:17:20;9.03;;;8.20;;
2257;SDS011;1136;51.574;7.706;2023-05-07T14:19:47;8.80;;;7.90;;
2257;SDS011;1136;51.574;7.706;2023-05-07T14:22:13;9.67;;;8.87;;
2257;SDS011;1136;51.574;7.706;2023-05-07T14:24:41;9.70;;;8.80;;
2257;SDS011;1136;51.574;7.706;2023-05-07T14:27:09;9.77;;;8.87;;
2257;SDS011;1136;51.574;7.706;2023-05-07T14:29:35;9.10;;;8.30;;
2257;SDS011;1136;51.574;7.706;2023-05-07T14:32:02;8.70;;;7.97;;
2257;SDS011;1136;51.574;7.706;2023-05-07T14:34:29;8.73;;;8.03;;
2257;SDS011;1136;51.574;7.706;2023-05-07T14:36:56;7.70;;;7.10;;
2257;SDS011;1136;51.574;7.706;2023-05-07T14:39:22;7.13;;;6.63;;
2257;SDS011;1136;51.574;7.706;2023-05-07T14:41:49;6.60;;;6.07;;
2257;SDS011;1136;51.574;7.706;2023-05-07T14:44:15;6.93;;;6.40;;
2257;SDS011;1136;51.574;7.706;2023-05-07T14:46:42;6.03;;;5.53;;
2257;SDS011;1136;51.574;7.706;2023-05-07T14:49:09;5.57;;;5.17;;
2257;SDS011;1136;51.574;7.706;2023-05-07T14:51:43;7.27;;;6.60;;
2257;SDS011;1136;51.574;7.706;2023-05-07T14:54:11;6.20;;;5.70;;
2257;SDS011;1136;51.574;7.706;2023-05-07T14:56:41;6.53;;;5.93;;
2257;SDS011;1136;51.574;7.706;2023-05-07T14:59:08;7.97;;;7.37;;
2257;SDS011;1136;51.574;7.706;2023-05-07T15:01:35;6.30;;;5.90;;
2257;SDS011;1136;51.574;7.706;2023-05-07T15:04:07;7.10;;;6.60;;
2257;SDS011;1136;51.574;7.706;2023-05-07T15:06:33;5.37;;;4.97;;
2257;SDS011;1136;51.574;7.706;2023-05-07T15:09:00;5.80;;;5.37;;
2257;SDS011;1136;51.574;7.706;2023-05-07T15:11:26;5.90;;;5.40;;
2257;SDS011;1136;51.574;7.706;2023-05-07T15:13:53;6.20;;;5.70;;
2257;SDS011;1136;51.574;7.706;2023-05-07T15:16:20;6.40;;;6.00;;
2257;SDS011;1136;51.574;7.706;2023-05-07T15:18:46;5.87;;;5.47;;
2257;SDS011;1136;51.574;7.706;2023-05-07T15:21:13;7.00;;;6.40;;
2257;SDS011;1136;51.574;7.706;2023-05-07T15:23:42;4.27;;;3.97;;
2257;SDS011;1136;51.574;7.706;2023-05-07T15:26:10;4.73;;;4.23;;